ETD454 OMAA-YSSY
Flight info
| Callsign | ETD454 |
|---|---|
| Flight time | N/A |
| Altitude | 29000 |
| Route | KANIP N318 TOLDA P570 EMURU M300 GOLBA/N0505F310 M300 VASTU P895 BIKOK M641 UBKAT/N0500F330 M641 DOGAR DCT 05S090E 10S094E 16S100E/N0489F350 DCT IKASA DCT 27S111E DCT POKIP DCT 31S118E DCT SORTU DCT 33S123E 3330S12500E/N0479F370 DCT MOSLA Y135 TEDUS J15 AD H247 CULIN Y59 RIVET |
| Aircraft | B77W/H-SDE1E2E3FGHIJ2J3J4J5M1RWXY/LB1D1 |
Departure
| Time | N/A |
|---|---|
| Airport | Zayed International Airport (OMAA) |
Arrival
| Time | 2026-04-30 07:51 |
|---|---|
| Airport | Sydney Kingsford Smith International Airport (YSSY) |
| Time | Latitude | Longitude | Altitude | Speed | Heading |
|---|---|---|---|---|---|
| 2026-04-30 03:50 | -16.79397 | 100.67550 | 34030 ft | 513 kts | 143° |
| 2026-04-30 03:50 | -16.82161 | 100.69914 | 34026 ft | 513 kts | 143° |
| 2026-04-30 03:50 | -16.87694 | 100.74651 | 34023 ft | 514 kts | 143° |
| 2026-04-30 03:51 | -16.93225 | 100.79391 | 34033 ft | 514 kts | 143° |
| 2026-04-30 03:51 | -16.98762 | 100.84139 | 34030 ft | 514 kts | 143° |
| 2026-04-30 03:52 | -17.04298 | 100.88891 | 34033 ft | 515 kts | 143° |
| 2026-04-30 03:52 | -17.09792 | 100.93609 | 34033 ft | 515 kts | 143° |
| 2026-04-30 03:53 | -17.15329 | 100.98369 | 34028 ft | 515 kts | 143° |
| 2026-04-30 03:53 | -17.20875 | 101.03140 | 34032 ft | 516 kts | 143° |
| 2026-04-30 03:54 | -17.26424 | 101.07917 | 34028 ft | 517 kts | 143° |
| 2026-04-30 03:54 | -17.31977 | 101.12702 | 34033 ft | 517 kts | 143° |
| 2026-04-30 03:55 | -17.37532 | 101.17493 | 34035 ft | 517 kts | 143° |
| 2026-04-30 03:55 | -17.43093 | 101.22293 | 34045 ft | 517 kts | 143° |
| 2026-04-30 03:56 | -17.48653 | 101.27095 | 34028 ft | 517 kts | 143° |
| 2026-04-30 03:56 | -17.54165 | 101.31861 | 34029 ft | 517 kts | 143° |
| 2026-04-30 03:57 | -17.59716 | 101.36663 | 34044 ft | 516 kts | 143° |
| 2026-04-30 03:57 | -17.65253 | 101.41457 | 34027 ft | 516 kts | 143° |
| 2026-04-30 03:58 | -17.70792 | 101.46257 | 34028 ft | 516 kts | 143° |
| 2026-04-30 03:58 | -17.76334 | 101.51064 | 34045 ft | 516 kts | 143° |
| 2026-04-30 03:59 | -17.81844 | 101.55847 | 34048 ft | 516 kts | 143° |
| 2026-04-30 03:59 | -17.87377 | 101.60654 | 34033 ft | 517 kts | 143° |
| 2026-04-30 04:00 | -17.92920 | 101.65473 | 34032 ft | 517 kts | 143° |
| 2026-04-30 04:00 | -17.98461 | 101.70295 | 34033 ft | 517 kts | 143° |
| 2026-04-30 04:01 | -18.04010 | 101.75128 | 34031 ft | 517 kts | 143° |
| 2026-04-30 04:01 | -18.09524 | 101.79935 | 34042 ft | 517 kts | 143° |
| 2026-04-30 04:02 | -18.15061 | 101.84766 | 34037 ft | 517 kts | 143° |
| 2026-04-30 04:02 | -18.20602 | 101.89604 | 34044 ft | 517 kts | 143° |
| 2026-04-30 04:03 | -18.26137 | 101.94441 | 34040 ft | 517 kts | 143° |
| 2026-04-30 04:03 | -18.31670 | 101.99281 | 34039 ft | 517 kts | 143° |
| 2026-04-30 04:04 | -18.37201 | 102.04123 | 34044 ft | 517 kts | 143° |
| 2026-04-30 04:04 | -18.42730 | 102.08968 | 34047 ft | 517 kts | 143° |
| 2026-04-30 04:05 | -18.48269 | 102.13824 | 34046 ft | 517 kts | 143° |
| 2026-04-30 04:05 | -18.53800 | 102.18679 | 34048 ft | 518 kts | 143° |
| 2026-04-30 04:06 | -18.59294 | 102.23505 | 34047 ft | 518 kts | 143° |
| 2026-04-30 04:06 | -18.64865 | 102.28404 | 34047 ft | 518 kts | 143° |
| 2026-04-30 04:07 | -18.70401 | 102.33275 | 34046 ft | 518 kts | 143° |
| 2026-04-30 04:08 | -18.78674 | 102.40563 | 34053 ft | 519 kts | 144° |
| 2026-04-30 04:08 | -18.84228 | 102.45461 | 34053 ft | 520 kts | 143° |
| 2026-04-30 04:09 | -18.89789 | 102.50371 | 34051 ft | 521 kts | 143° |
| 2026-04-30 04:09 | -18.95347 | 102.55282 | 34052 ft | 521 kts | 143° |
| 2026-04-30 04:10 | -18.99975 | 102.59374 | 34050 ft | 521 kts | 143° |
| 2026-04-30 04:10 | -19.05540 | 102.64299 | 34056 ft | 521 kts | 144° |
| 2026-04-30 04:11 | -19.11106 | 102.69229 | 34054 ft | 522 kts | 144° |
| 2026-04-30 04:11 | -19.16643 | 102.74138 | 34056 ft | 522 kts | 144° |
| 2026-04-30 04:12 | -19.22210 | 102.79079 | 34057 ft | 522 kts | 143° |
| 2026-04-30 04:12 | -19.27775 | 102.84021 | 34054 ft | 522 kts | 143° |
| 2026-04-30 04:13 | -19.33337 | 102.88967 | 34054 ft | 522 kts | 143° |
| 2026-04-30 04:13 | -19.38903 | 102.93920 | 34056 ft | 523 kts | 144° |
| 2026-04-30 04:14 | -19.44480 | 102.98886 | 34061 ft | 523 kts | 144° |
| 2026-04-30 04:14 | -19.50053 | 103.03855 | 34059 ft | 524 kts | 144° |
| 2026-04-30 04:15 | -19.55641 | 103.08841 | 34062 ft | 524 kts | 144° |
| 2026-04-30 04:15 | -19.61189 | 103.13798 | 34061 ft | 525 kts | 144° |
| 2026-04-30 04:16 | -19.66770 | 103.18788 | 34071 ft | 525 kts | 144° |
| 2026-04-30 04:16 | -19.72357 | 103.23787 | 34065 ft | 525 kts | 144° |
| 2026-04-30 04:17 | -19.77955 | 103.28802 | 34061 ft | 526 kts | 144° |
| 2026-04-30 04:17 | -19.83552 | 103.33820 | 34064 ft | 526 kts | 144° |
| 2026-04-30 04:18 | -19.89107 | 103.38806 | 34063 ft | 526 kts | 144° |
| 2026-04-30 04:18 | -19.94699 | 103.43830 | 34062 ft | 526 kts | 144° |
| 2026-04-30 04:19 | -20.00297 | 103.48865 | 34074 ft | 527 kts | 143° |
| 2026-04-30 04:19 | -20.05757 | 103.54115 | 34070 ft | 530 kts | 140° |
| 2026-04-30 04:20 | -20.11086 | 103.59541 | 34063 ft | 531 kts | 140° |
| 2026-04-30 04:20 | -20.16426 | 103.64967 | 34056 ft | 530 kts | 140° |
| 2026-04-30 04:21 | -20.21795 | 103.70359 | 34067 ft | 530 kts | 141° |
| 2026-04-30 04:21 | -20.27180 | 103.75741 | 34071 ft | 530 kts | 141° |
| 2026-04-30 04:22 | -20.32566 | 103.81126 | 34070 ft | 531 kts | 141° |
| 2026-04-30 04:22 | -20.37921 | 103.86492 | 34064 ft | 532 kts | 141° |
| 2026-04-30 04:23 | -20.43312 | 103.91903 | 34061 ft | 532 kts | 141° |
| 2026-04-30 04:23 | -20.48711 | 103.97328 | 34087 ft | 532 kts | 141° |
| 2026-04-30 04:24 | -20.54101 | 104.02748 | 34066 ft | 532 kts | 141° |
| 2026-04-30 04:24 | -20.59455 | 104.08138 | 34074 ft | 533 kts | 141° |
| 2026-04-30 04:25 | -20.64852 | 104.13576 | 34068 ft | 533 kts | 141° |
| 2026-04-30 04:25 | -20.70253 | 104.19023 | 34069 ft | 534 kts | 141° |
| 2026-04-30 04:26 | -20.75653 | 104.24476 | 34070 ft | 534 kts | 141° |
| 2026-04-30 04:26 | -20.81051 | 104.29932 | 34067 ft | 534 kts | 141° |
| 2026-04-30 04:27 | -20.86449 | 104.35394 | 34071 ft | 534 kts | 141° |
| 2026-04-30 04:27 | -20.91843 | 104.40857 | 34065 ft | 534 kts | 141° |
| 2026-04-30 04:28 | -20.97231 | 104.46321 | 34070 ft | 533 kts | 141° |
| 2026-04-30 04:28 | -21.02616 | 104.51786 | 34068 ft | 533 kts | 141° |
| 2026-04-30 04:29 | -21.07994 | 104.57250 | 34068 ft | 533 kts | 141° |
| 2026-04-30 04:29 | -21.13374 | 104.62722 | 34068 ft | 533 kts | 141° |
| 2026-04-30 04:30 | -21.18720 | 104.68165 | 34076 ft | 534 kts | 141° |
| 2026-04-30 04:30 | -21.24114 | 104.73662 | 34074 ft | 536 kts | 141° |
| 2026-04-30 04:31 | -21.29527 | 104.79184 | 34075 ft | 537 kts | 141° |
| 2026-04-30 04:31 | -21.34936 | 104.84709 | 34073 ft | 538 kts | 141° |
| 2026-04-30 04:32 | -21.40361 | 104.90257 | 34070 ft | 538 kts | 141° |
| 2026-04-30 04:32 | -21.45744 | 104.95768 | 34092 ft | 538 kts | 141° |
| 2026-04-30 04:33 | -21.51161 | 105.01319 | 34073 ft | 539 kts | 141° |
| 2026-04-30 04:33 | -21.56579 | 105.06877 | 34073 ft | 538 kts | 141° |
| 2026-04-30 04:34 | -21.61994 | 105.12438 | 34075 ft | 538 kts | 141° |
| 2026-04-30 04:34 | -21.67417 | 105.18013 | 34073 ft | 539 kts | 141° |
| 2026-04-30 04:35 | -21.72830 | 105.23584 | 34074 ft | 539 kts | 141° |
| 2026-04-30 04:35 | -21.78243 | 105.29162 | 34080 ft | 539 kts | 141° |
| 2026-04-30 04:36 | -21.83666 | 105.34754 | 34078 ft | 540 kts | 141° |
| 2026-04-30 04:36 | -21.89091 | 105.40356 | 34074 ft | 540 kts | 141° |
| 2026-04-30 04:37 | -21.94478 | 105.45925 | 34074 ft | 540 kts | 141° |
| 2026-04-30 04:37 | -21.99903 | 105.51539 | 34073 ft | 540 kts | 141° |
| 2026-04-30 04:38 | -22.05322 | 105.57155 | 34086 ft | 541 kts | 142° |
| 2026-04-30 04:38 | -22.10751 | 105.62784 | 34077 ft | 542 kts | 142° |
| 2026-04-30 04:39 | -22.16184 | 105.68426 | 34072 ft | 542 kts | 142° |
| 2026-04-30 04:39 | -22.21581 | 105.74036 | 34081 ft | 542 kts | 142° |
| 2026-04-30 04:40 | -22.27011 | 105.79687 | 34077 ft | 542 kts | 142° |
| 2026-04-30 04:40 | -22.32441 | 105.85346 | 34092 ft | 542 kts | 142° |
| 2026-04-30 04:41 | -22.37874 | 105.91013 | 34080 ft | 543 kts | 142° |
| 2026-04-30 04:41 | -22.43305 | 105.96684 | 34078 ft | 543 kts | 142° |
| 2026-04-30 04:42 | -22.48731 | 106.02357 | 34080 ft | 543 kts | 142° |
| 2026-04-30 04:42 | -22.54153 | 106.08032 | 34079 ft | 542 kts | 142° |
| 2026-04-30 04:43 | -22.59573 | 106.13713 | 34081 ft | 542 kts | 142° |
| 2026-04-30 04:43 | -22.64992 | 106.19398 | 34089 ft | 542 kts | 142° |
| 2026-04-30 04:44 | -22.70376 | 106.25051 | 34087 ft | 542 kts | 142° |
| 2026-04-30 04:44 | -22.75789 | 106.30744 | 34069 ft | 542 kts | 142° |
| 2026-04-30 04:45 | -22.81199 | 106.36440 | 34083 ft | 542 kts | 142° |
| 2026-04-30 04:45 | -22.86611 | 106.42144 | 34087 ft | 542 kts | 142° |
| 2026-04-30 04:46 | -22.92024 | 106.47855 | 34092 ft | 543 kts | 142° |
| 2026-04-30 04:46 | -22.97443 | 106.53580 | 34085 ft | 543 kts | 142° |
| 2026-04-30 04:47 | -23.02857 | 106.59307 | 34087 ft | 543 kts | 142° |
| 2026-04-30 04:47 | -23.08267 | 106.65037 | 34087 ft | 543 kts | 142° |
| 2026-04-30 04:48 | -23.13673 | 106.70768 | 34083 ft | 543 kts | 142° |
| 2026-04-30 04:48 | -23.19041 | 106.76467 | 34102 ft | 543 kts | 142° |
| 2026-04-30 04:49 | -23.24445 | 106.82209 | 34095 ft | 543 kts | 142° |
| 2026-04-30 04:49 | -23.29850 | 106.87960 | 34092 ft | 543 kts | 142° |
| 2026-04-30 04:50 | -23.35257 | 106.93720 | 34090 ft | 543 kts | 142° |
| 2026-04-30 04:50 | -23.40653 | 106.99476 | 34090 ft | 543 kts | 142° |
| 2026-04-30 04:51 | -23.46054 | 107.05244 | 34103 ft | 544 kts | 142° |
| 2026-04-30 04:51 | -23.51460 | 107.11023 | 34099 ft | 545 kts | 142° |
| 2026-04-30 04:52 | -23.56838 | 107.16780 | 34103 ft | 545 kts | 142° |
| 2026-04-30 04:52 | -23.62248 | 107.22579 | 34095 ft | 545 kts | 142° |
| 2026-04-30 04:53 | -23.67658 | 107.28384 | 34092 ft | 545 kts | 142° |
| 2026-04-30 04:53 | -23.73062 | 107.34190 | 34097 ft | 545 kts | 142° |
| 2026-04-30 04:54 | -23.78466 | 107.40005 | 34101 ft | 545 kts | 142° |
| 2026-04-30 04:54 | -23.83872 | 107.45827 | 34102 ft | 545 kts | 142° |
| 2026-04-30 04:55 | -23.89245 | 107.51622 | 34095 ft | 545 kts | 142° |
| 2026-04-30 04:55 | -23.94640 | 107.57446 | 34098 ft | 544 kts | 142° |
| 2026-04-30 04:56 | -24.00030 | 107.63273 | 34099 ft | 545 kts | 142° |
| 2026-04-30 04:56 | -24.05423 | 107.69109 | 34121 ft | 546 kts | 142° |
| 2026-04-30 04:57 | -24.10826 | 107.74965 | 34090 ft | 546 kts | 142° |
| 2026-04-30 04:57 | -24.16222 | 107.80821 | 34093 ft | 546 kts | 142° |
| 2026-04-30 04:58 | -24.21597 | 107.86662 | 34117 ft | 546 kts | 142° |
| 2026-04-30 04:58 | -24.26999 | 107.92539 | 34117 ft | 547 kts | 142° |
| 2026-04-30 04:59 | -24.31489 | 107.97427 | 34109 ft | 548 kts | 142° |
| 2026-04-30 04:59 | -24.36905 | 108.03333 | 34103 ft | 549 kts | 142° |
| 2026-04-30 05:00 | -24.42318 | 108.09243 | 34104 ft | 549 kts | 142° |
| 2026-04-30 05:00 | -24.47732 | 108.15161 | 34106 ft | 549 kts | 142° |
| 2026-04-30 05:01 | -24.53142 | 108.21085 | 34139 ft | 550 kts | 142° |
| 2026-04-30 05:01 | -24.58562 | 108.27024 | 34107 ft | 550 kts | 142° |
| 2026-04-30 05:02 | -24.63945 | 108.32932 | 34105 ft | 550 kts | 142° |
| 2026-04-30 05:02 | -24.69356 | 108.38879 | 34107 ft | 550 kts | 142° |
| 2026-04-30 05:03 | -24.74770 | 108.44836 | 34103 ft | 550 kts | 142° |
| 2026-04-30 05:03 | -24.80176 | 108.50792 | 34121 ft | 550 kts | 142° |
| 2026-04-30 05:04 | -24.85586 | 108.56759 | 34111 ft | 550 kts | 142° |
| 2026-04-30 05:04 | -24.91000 | 108.62740 | 34105 ft | 551 kts | 142° |
| 2026-04-30 05:05 | -24.96409 | 108.68723 | 34115 ft | 551 kts | 142° |
| 2026-04-30 05:05 | -25.01787 | 108.74680 | 34109 ft | 551 kts | 142° |
| 2026-04-30 05:06 | -25.09898 | 108.83678 | 34113 ft | 552 kts | 142° |
| 2026-04-30 05:06 | -25.15310 | 108.89692 | 34110 ft | 552 kts | 142° |
| 2026-04-30 05:07 | -25.20715 | 108.95706 | 34112 ft | 551 kts | 142° |
| 2026-04-30 05:07 | -25.26117 | 109.01726 | 34112 ft | 551 kts | 142° |
| 2026-04-30 05:08 | -25.31519 | 109.07753 | 34132 ft | 552 kts | 143° |
| 2026-04-30 05:08 | -25.36882 | 109.13744 | 34125 ft | 552 kts | 143° |
| 2026-04-30 05:09 | -25.42283 | 109.19785 | 34101 ft | 552 kts | 143° |
| 2026-04-30 05:09 | -25.47676 | 109.25828 | 34119 ft | 551 kts | 143° |
| 2026-04-30 05:10 | -25.53066 | 109.31873 | 34122 ft | 551 kts | 142° |
| 2026-04-30 05:10 | -25.58457 | 109.37929 | 34127 ft | 553 kts | 143° |
| 2026-04-30 05:11 | -25.63858 | 109.44003 | 34111 ft | 553 kts | 143° |
| 2026-04-30 05:11 | -25.69227 | 109.50050 | 34113 ft | 554 kts | 143° |
| 2026-04-30 05:12 | -25.74634 | 109.56149 | 34112 ft | 554 kts | 143° |
| 2026-04-30 05:12 | -25.80040 | 109.62255 | 34111 ft | 554 kts | 143° |
| 2026-04-30 05:13 | -25.85447 | 109.68371 | 34119 ft | 554 kts | 143° |
| 2026-04-30 05:13 | -25.90840 | 109.74480 | 34108 ft | 553 kts | 143° |
| 2026-04-30 05:14 | -25.96219 | 109.80582 | 34099 ft | 552 kts | 143° |
| 2026-04-30 05:14 | -26.01590 | 109.86683 | 34109 ft | 551 kts | 143° |
| 2026-04-30 05:15 | -26.06951 | 109.92778 | 34157 ft | 551 kts | 143° |
| 2026-04-30 05:15 | -26.12309 | 109.98880 | 34112 ft | 549 kts | 143° |
| 2026-04-30 05:16 | -26.17607 | 110.04926 | 34114 ft | 547 kts | 143° |
| 2026-04-30 05:16 | -26.22919 | 110.10992 | 34107 ft | 546 kts | 143° |
| 2026-04-30 05:17 | -26.28220 | 110.17054 | 34112 ft | 545 kts | 143° |
| 2026-04-30 05:17 | -26.33506 | 110.23105 | 34113 ft | 545 kts | 142° |
| 2026-04-30 05:18 | -26.38802 | 110.29177 | 34115 ft | 546 kts | 142° |
| 2026-04-30 05:18 | -26.44069 | 110.35226 | 34113 ft | 548 kts | 142° |
| 2026-04-30 05:19 | -26.49378 | 110.41331 | 34111 ft | 549 kts | 142° |
| 2026-04-30 05:19 | -26.54694 | 110.47455 | 34133 ft | 549 kts | 142° |
| 2026-04-30 05:20 | -26.60025 | 110.53604 | 34105 ft | 549 kts | 142° |
| 2026-04-30 05:20 | -26.65330 | 110.59734 | 34107 ft | 548 kts | 142° |
| 2026-04-30 05:21 | -26.70625 | 110.65859 | 34105 ft | 547 kts | 142° |
| 2026-04-30 05:21 | -26.75912 | 110.71982 | 34107 ft | 546 kts | 142° |
| 2026-04-30 05:22 | -26.81180 | 110.78093 | 34137 ft | 545 kts | 143° |
| 2026-04-30 05:22 | -26.86449 | 110.84213 | 34114 ft | 545 kts | 142° |
| 2026-04-30 05:23 | -26.91701 | 110.90325 | 34101 ft | 544 kts | 142° |
| 2026-04-30 05:23 | -26.96915 | 110.96399 | 34106 ft | 544 kts | 142° |
| 2026-04-30 05:24 | -27.02022 | 111.02711 | 34101 ft | 551 kts | 136° |
| 2026-04-30 05:24 | -27.06740 | 111.09501 | 34119 ft | 553 kts | 135° |
| 2026-04-30 05:25 | -27.11426 | 111.16348 | 34099 ft | 552 kts | 135° |
| 2026-04-30 05:25 | -27.16127 | 111.23165 | 34106 ft | 552 kts | 135° |
| 2026-04-30 05:26 | -27.20844 | 111.29964 | 34100 ft | 552 kts | 136° |
| 2026-04-30 05:26 | -27.25569 | 111.36773 | 34105 ft | 552 kts | 136° |
| 2026-04-30 05:27 | -27.30282 | 111.43580 | 34103 ft | 552 kts | 135° |
| 2026-04-30 05:27 | -27.34949 | 111.50338 | 34097 ft | 550 kts | 135° |
| 2026-04-30 05:28 | -27.39639 | 111.57142 | 34096 ft | 548 kts | 135° |
| 2026-04-30 05:28 | -27.44303 | 111.63915 | 34099 ft | 547 kts | 135° |
| 2026-04-30 05:29 | -27.48961 | 111.70689 | 34137 ft | 546 kts | 135° |
| 2026-04-30 05:29 | -27.53617 | 111.77469 | 34104 ft | 546 kts | 134° |
| 2026-04-30 05:30 | -27.58229 | 111.84199 | 34096 ft | 545 kts | 134° |
| 2026-04-30 05:30 | -27.62859 | 111.90965 | 34104 ft | 544 kts | 134° |
| 2026-04-30 05:31 | -27.67486 | 111.97736 | 34101 ft | 545 kts | 134° |
| 2026-04-30 05:31 | -27.72108 | 112.04510 | 34148 ft | 545 kts | 134° |
| 2026-04-30 05:32 | -27.76734 | 112.11300 | 34106 ft | 545 kts | 134° |
| 2026-04-30 05:32 | -27.81345 | 112.18082 | 34097 ft | 543 kts | 134° |
| 2026-04-30 05:33 | -27.85912 | 112.24809 | 34100 ft | 542 kts | 134° |
| 2026-04-30 05:33 | -27.90496 | 112.31571 | 34101 ft | 541 kts | 134° |
| 2026-04-30 05:34 | -27.95074 | 112.38333 | 34112 ft | 541 kts | 133° |
| 2026-04-30 05:34 | -27.99649 | 112.45102 | 34104 ft | 541 kts | 133° |
| 2026-04-30 05:35 | -28.04220 | 112.51876 | 34096 ft | 540 kts | 133° |
| 2026-04-30 05:35 | -28.08778 | 112.58640 | 34096 ft | 540 kts | 133° |
| 2026-04-30 05:36 | -28.13330 | 112.65408 | 34099 ft | 540 kts | 133° |
| 2026-04-30 05:36 | -28.17849 | 112.72136 | 34116 ft | 541 kts | 133° |
| 2026-04-30 05:37 | -28.22407 | 112.78933 | 34090 ft | 540 kts | 133° |
| 2026-04-30 05:37 | -28.26948 | 112.85718 | 34090 ft | 539 kts | 133° |
| 2026-04-30 05:38 | -28.31483 | 112.92502 | 34095 ft | 539 kts | 132° |
| 2026-04-30 05:38 | -28.36016 | 112.99295 | 34096 ft | 539 kts | 132° |
| 2026-04-30 05:39 | -28.40538 | 113.06081 | 34099 ft | 539 kts | 132° |
| 2026-04-30 05:39 | -28.45029 | 113.12831 | 34100 ft | 539 kts | 132° |
| 2026-04-30 05:40 | -28.49544 | 113.19631 | 34096 ft | 539 kts | 132° |
| 2026-04-30 05:40 | -28.54059 | 113.26439 | 34096 ft | 539 kts | 132° |
| 2026-04-30 05:41 | -28.58568 | 113.33251 | 34097 ft | 539 kts | 132° |
| 2026-04-30 05:41 | -28.63076 | 113.40070 | 34095 ft | 539 kts | 132° |
| 2026-04-30 05:42 | -28.67576 | 113.46890 | 34092 ft | 539 kts | 132° |
| 2026-04-30 05:42 | -28.72082 | 113.53731 | 34092 ft | 539 kts | 132° |
| 2026-04-30 05:43 | -28.76586 | 113.60578 | 34090 ft | 540 kts | 132° |
| 2026-04-30 05:43 | -28.81064 | 113.67397 | 34100 ft | 541 kts | 131° |
| 2026-04-30 05:44 | -28.85571 | 113.74272 | 34091 ft | 541 kts | 131° |
| 2026-04-30 05:44 | -28.90077 | 113.81158 | 34088 ft | 541 kts | 131° |
| 2026-04-30 05:45 | -28.94574 | 113.88041 | 34083 ft | 541 kts | 131° |
| 2026-04-30 05:45 | -28.99042 | 113.94891 | 34088 ft | 541 kts | 131° |
| 2026-04-30 05:46 | -29.03529 | 114.01804 | 34091 ft | 542 kts | 129° |
| 2026-04-30 05:46 | -29.07527 | 114.09152 | 34088 ft | 545 kts | 124° |
| 2026-04-30 05:47 | -29.11335 | 114.16653 | 34082 ft | 545 kts | 124° |
| 2026-04-30 05:47 | -29.15146 | 114.24144 | 34088 ft | 545 kts | 124° |
| 2026-04-30 05:48 | -29.18990 | 114.31633 | 34085 ft | 545 kts | 124° |
| 2026-04-30 05:48 | -29.22822 | 114.39080 | 34064 ft | 546 kts | 124° |
| 2026-04-30 05:49 | -29.26022 | 114.45309 | 34093 ft | 545 kts | 124° |
| 2026-04-30 05:49 | -29.29863 | 114.52805 | 34087 ft | 545 kts | 124° |
| 2026-04-30 05:50 | -29.33704 | 114.60318 | 34075 ft | 545 kts | 124° |
| 2026-04-30 05:50 | -29.37533 | 114.67822 | 34081 ft | 545 kts | 124° |
| 2026-04-30 05:51 | -29.41362 | 114.75338 | 34086 ft | 546 kts | 124° |
| 2026-04-30 05:51 | -29.45187 | 114.82862 | 34076 ft | 546 kts | 124° |
| 2026-04-30 05:52 | -29.49013 | 114.90400 | 34071 ft | 546 kts | 123° |
| 2026-04-30 05:52 | -29.52831 | 114.97939 | 34074 ft | 546 kts | 123° |
| 2026-04-30 05:53 | -29.56650 | 115.05490 | 34067 ft | 546 kts | 123° |
| 2026-04-30 05:53 | -29.60442 | 115.13004 | 34078 ft | 547 kts | 123° |
| 2026-04-30 05:54 | -29.64256 | 115.20577 | 34067 ft | 547 kts | 123° |
| 2026-04-30 05:54 | -29.68066 | 115.28157 | 34063 ft | 547 kts | 123° |
| 2026-04-30 05:55 | -29.71871 | 115.35739 | 34052 ft | 547 kts | 123° |
| 2026-04-30 05:55 | -29.75670 | 115.43324 | 34053 ft | 547 kts | 123° |
| 2026-04-30 05:56 | -29.79470 | 115.50925 | 34067 ft | 547 kts | 123° |
| 2026-04-30 05:56 | -29.83267 | 115.58534 | 34057 ft | 548 kts | 123° |
| 2026-04-30 05:57 | -29.87039 | 115.66109 | 34046 ft | 549 kts | 123° |
| 2026-04-30 05:57 | -29.90832 | 115.73740 | 34051 ft | 548 kts | 123° |
| 2026-04-30 05:58 | -29.94621 | 115.81377 | 34044 ft | 548 kts | 123° |
| 2026-04-30 05:58 | -29.98410 | 115.89030 | 34034 ft | 549 kts | 123° |
| 2026-04-30 05:59 | -30.02195 | 115.96688 | 34050 ft | 550 kts | 123° |
| 2026-04-30 05:59 | -30.05980 | 116.04361 | 34049 ft | 550 kts | 123° |
| 2026-04-30 06:00 | -30.09763 | 116.12048 | 34051 ft | 550 kts | 123° |
| 2026-04-30 06:00 | -30.13538 | 116.19731 | 34057 ft | 551 kts | 123° |
| 2026-04-30 06:01 | -30.17296 | 116.27393 | 34027 ft | 551 kts | 122° |
| 2026-04-30 06:01 | -30.21078 | 116.35121 | 34081 ft | 554 kts | 122° |
| 2026-04-30 06:02 | -30.22979 | 116.39010 | 34264 ft | 556 kts | 122° |
| 2026-04-30 06:02 | -30.24883 | 116.42910 | 34575 ft | 555 kts | 122° |
| 2026-04-30 06:02 | -30.26779 | 116.46799 | 34899 ft | 554 kts | 122° |
| 2026-04-30 06:02 | -30.28670 | 116.50680 | 35216 ft | 553 kts | 122° |
| 2026-04-30 06:03 | -30.30558 | 116.54561 | 35543 ft | 553 kts | 122° |
| 2026-04-30 06:03 | -30.32448 | 116.58448 | 35741 ft | 554 kts | 122° |
| 2026-04-30 06:03 | -30.34340 | 116.62340 | 35951 ft | 555 kts | 122° |
| 2026-04-30 06:03 | -30.36213 | 116.66198 | 35994 ft | 558 kts | 122° |
| 2026-04-30 06:04 | -30.40028 | 116.74072 | 36029 ft | 555 kts | 122° |
| 2026-04-30 06:05 | -30.45645 | 116.85698 | 36031 ft | 552 kts | 122° |
| 2026-04-30 06:05 | -30.49384 | 116.93453 | 36029 ft | 550 kts | 122° |
| 2026-04-30 06:06 | -30.53118 | 117.01212 | 36035 ft | 550 kts | 122° |
| 2026-04-30 06:06 | -30.56846 | 117.08972 | 36031 ft | 551 kts | 122° |
| 2026-04-30 06:07 | -30.60577 | 117.16757 | 36034 ft | 552 kts | 122° |
| 2026-04-30 06:07 | -30.64308 | 117.24557 | 36025 ft | 553 kts | 122° |
| 2026-04-30 06:08 | -30.68046 | 117.32387 | 36027 ft | 555 kts | 122° |
| 2026-04-30 06:08 | -30.71787 | 117.40241 | 36036 ft | 555 kts | 122° |
| 2026-04-30 06:09 | -30.75528 | 117.48111 | 36003 ft | 556 kts | 122° |
| 2026-04-30 06:09 | -30.79239 | 117.55934 | 36024 ft | 556 kts | 121° |
| 2026-04-30 06:10 | -30.82968 | 117.63810 | 36053 ft | 556 kts | 121° |
| 2026-04-30 06:10 | -30.86696 | 117.71702 | 36026 ft | 556 kts | 121° |
| 2026-04-30 06:11 | -30.90417 | 117.79593 | 36024 ft | 556 kts | 121° |
| 2026-04-30 06:11 | -30.94134 | 117.87495 | 36010 ft | 555 kts | 121° |
| 2026-04-30 06:12 | -31.14032 | 118.30874 | 36007 ft | 555 kts | 120° |
| 2026-04-30 06:12 | -31.42693 | 118.94828 | 36011 ft | 555 kts | 120° |
| 2026-04-30 06:13 | -31.71102 | 119.59306 | 35985 ft | 557 kts | 119° |
| 2026-04-30 06:13 | -31.99220 | 120.24270 | 35984 ft | 558 kts | 118° |
| 2026-04-30 06:14 | -32.26027 | 120.90487 | 36000 ft | 559 kts | 113° |
| 2026-04-30 06:14 | -32.50248 | 121.57814 | 35960 ft | 560 kts | 114° |
| 2026-04-30 06:15 | -32.74334 | 122.25877 | 35970 ft | 559 kts | 113° |
| 2026-04-30 06:15 | -32.98080 | 122.94383 | 35936 ft | 559 kts | 112° |
| 2026-04-30 06:16 | -33.16689 | 123.65160 | 35973 ft | 560 kts | 107° |
| 2026-04-30 06:16 | -33.34558 | 124.36567 | 35928 ft | 560 kts | 105° |
| 2026-04-30 06:17 | -33.51888 | 125.08071 | 35920 ft | 558 kts | 104° |
| 2026-04-30 06:17 | -33.67276 | 125.80056 | 35930 ft | 557 kts | 103° |
| 2026-04-30 06:18 | -33.82239 | 126.51774 | 35948 ft | 556 kts | 102° |
| 2026-04-30 06:18 | -33.96873 | 127.24155 | 35908 ft | 556 kts | 102° |
| 2026-04-30 06:19 | -34.11049 | 127.96601 | 35918 ft | 555 kts | 102° |
| 2026-04-30 06:19 | -34.20054 | 128.69794 | 35911 ft | 550 kts | 96° |
| 2026-04-30 06:20 | -34.28371 | 129.42814 | 35930 ft | 548 kts | 96° |
| 2026-04-30 06:20 | -34.36228 | 130.15824 | 35976 ft | 547 kts | 96° |
| 2026-04-30 06:21 | -34.43669 | 130.89127 | 36785 ft | 557 kts | 95° |
| 2026-04-30 06:21 | -34.47314 | 131.26823 | 37128 ft | 567 kts | 95° |
| 2026-04-30 06:21 | -34.50856 | 131.64552 | 36926 ft | 558 kts | 95° |
| 2026-04-30 06:21 | -34.54214 | 132.01369 | 36773 ft | 534 kts | 95° |
| 2026-04-30 06:22 | -34.57256 | 132.35989 | 36837 ft | 516 kts | 94° |
| 2026-04-30 06:22 | -34.60203 | 132.70723 | 37071 ft | 520 kts | 94° |
| 2026-04-30 06:22 | -34.63114 | 133.06094 | 37178 ft | 534 kts | 94° |
| 2026-04-30 06:23 | -34.68765 | 133.78781 | 36965 ft | 536 kts | 94° |
| 2026-04-30 06:23 | -34.71369 | 134.14409 | 36884 ft | 522 kts | 93° |
| 2026-04-30 06:23 | -34.73814 | 134.49211 | 36963 ft | 513 kts | 93° |
| 2026-04-30 06:23 | -34.76151 | 134.83909 | 37107 ft | 517 kts | 93° |
| 2026-04-30 06:24 | -34.78410 | 135.19122 | 37177 ft | 526 kts | 93° |
| 2026-04-30 06:24 | -34.82663 | 135.90435 | 36985 ft | 524 kts | 92° |
| 2026-04-30 06:24 | -34.84599 | 136.25384 | 36945 ft | 511 kts | 92° |
| 2026-04-30 06:25 | -34.86413 | 136.59764 | 37076 ft | 508 kts | 92° |
| 2026-04-30 06:25 | -34.88145 | 136.94393 | 37197 ft | 516 kts | 92° |
| 2026-04-30 06:25 | -34.89787 | 137.29332 | 37231 ft | 527 kts | 92° |
| 2026-04-30 06:25 | -34.91357 | 137.64951 | 37121 ft | 525 kts | 92° |
| 2026-04-30 06:26 | -34.92777 | 138.00235 | 37018 ft | 513 kts | 92° |
| 2026-04-30 06:26 | -34.94062 | 138.34474 | 37028 ft | 501 kts | 92° |
| 2026-04-30 06:26 | -34.95124 | 138.68451 | 37178 ft | 502 kts | 91° |
| 2026-04-30 06:26 | -34.95796 | 139.02781 | 37292 ft | 511 kts | 91° |
| 2026-04-30 06:27 | -34.96447 | 139.37769 | 37255 ft | 519 kts | 91° |
| 2026-04-30 06:27 | -34.96971 | 139.71507 | 37121 ft | 514 kts | 90° |
| 2026-04-30 06:27 | -34.97079 | 139.79505 | 37182 ft | 509 kts | 90° |
| 2026-04-30 06:28 | -34.97190 | 139.88093 | 37169 ft | 505 kts | 90° |
| 2026-04-30 06:28 | -34.97296 | 139.96652 | 37190 ft | 506 kts | 90° |
| 2026-04-30 06:29 | -34.97398 | 140.05262 | 37187 ft | 509 kts | 90° |
| 2026-04-30 06:29 | -34.97493 | 140.13908 | 37189 ft | 510 kts | 90° |
| 2026-04-30 06:30 | -34.97582 | 140.22515 | 37193 ft | 510 kts | 90° |
| 2026-04-30 06:30 | -34.97667 | 140.31163 | 37189 ft | 509 kts | 90° |
| 2026-04-30 06:31 | -34.97744 | 140.39794 | 37190 ft | 508 kts | 90° |
| 2026-04-30 06:31 | -34.97815 | 140.48380 | 37192 ft | 506 kts | 89° |
| 2026-04-30 06:32 | -34.97879 | 140.56945 | 37199 ft | 504 kts | 89° |
| 2026-04-30 06:32 | -34.97937 | 140.65318 | 37196 ft | 503 kts | 89° |
| 2026-04-30 06:33 | -34.97990 | 140.73851 | 37208 ft | 502 kts | 89° |
| 2026-04-30 06:33 | -34.98037 | 140.82301 | 37208 ft | 502 kts | 89° |
| 2026-04-30 06:34 | -34.98078 | 140.90814 | 37209 ft | 501 kts | 89° |
| 2026-04-30 06:34 | -34.98108 | 140.97886 | 37217 ft | 501 kts | 89° |
| 2026-04-30 06:35 | -34.98137 | 141.06385 | 37209 ft | 501 kts | 89° |
| 2026-04-30 06:35 | -34.98162 | 141.14885 | 37222 ft | 501 kts | 88° |
| 2026-04-30 06:36 | -34.98180 | 141.23286 | 37221 ft | 501 kts | 88° |
| 2026-04-30 06:36 | -34.98192 | 141.31776 | 37216 ft | 501 kts | 88° |
| 2026-04-30 06:37 | -34.98199 | 141.40263 | 37215 ft | 501 kts | 88° |
| 2026-04-30 06:37 | -34.98201 | 141.48707 | 37218 ft | 500 kts | 88° |
| 2026-04-30 06:38 | -34.98194 | 141.57189 | 37219 ft | 500 kts | 88° |
| 2026-04-30 06:38 | -34.98183 | 141.65672 | 37223 ft | 500 kts | 88° |
| 2026-04-30 06:39 | -34.98165 | 141.74139 | 37223 ft | 500 kts | 88° |
| 2026-04-30 06:39 | -34.98142 | 141.82614 | 37229 ft | 499 kts | 88° |
| 2026-04-30 06:40 | -34.98114 | 141.91086 | 37226 ft | 499 kts | 88° |
| 2026-04-30 06:40 | -34.98079 | 141.99550 | 37224 ft | 499 kts | 88° |
| 2026-04-30 06:41 | -34.98038 | 142.08010 | 37229 ft | 499 kts | 88° |
| 2026-04-30 06:41 | -34.97993 | 142.16138 | 37226 ft | 498 kts | 88° |
| 2026-04-30 06:42 | -34.97941 | 142.24582 | 37234 ft | 498 kts | 88° |
| 2026-04-30 06:42 | -34.97884 | 142.33035 | 37234 ft | 498 kts | 87° |
| 2026-04-30 06:43 | -34.97820 | 142.41488 | 37234 ft | 498 kts | 87° |
| 2026-04-30 06:43 | -34.97750 | 142.49938 | 37236 ft | 498 kts | 87° |
| 2026-04-30 06:44 | -34.97675 | 142.58338 | 37236 ft | 498 kts | 87° |
| 2026-04-30 06:44 | -34.97594 | 142.66791 | 37233 ft | 498 kts | 87° |
| 2026-04-30 06:45 | -34.97506 | 142.75244 | 37241 ft | 498 kts | 87° |
| 2026-04-30 06:45 | -34.97414 | 142.83697 | 37243 ft | 498 kts | 87° |
| 2026-04-30 06:46 | -34.97315 | 142.92142 | 37245 ft | 498 kts | 87° |
| 2026-04-30 06:46 | -34.97210 | 143.00591 | 37248 ft | 498 kts | 86° |
| 2026-04-30 06:47 | -34.97100 | 143.09033 | 37249 ft | 498 kts | 86° |
| 2026-04-30 06:47 | -34.96984 | 143.17467 | 37250 ft | 497 kts | 86° |
| 2026-04-30 06:48 | -34.96865 | 143.25856 | 37246 ft | 497 kts | 86° |
| 2026-04-30 06:48 | -34.96762 | 143.34277 | 37251 ft | 496 kts | 86° |
| 2026-04-30 06:49 | -34.96660 | 143.42708 | 37252 ft | 496 kts | 86° |
| 2026-04-30 06:49 | -34.96551 | 143.51109 | 37248 ft | 495 kts | 86° |
| 2026-04-30 06:50 | -34.96434 | 143.59502 | 37257 ft | 495 kts | 86° |
| 2026-04-30 06:50 | -34.96311 | 143.67885 | 37257 ft | 494 kts | 86° |
| 2026-04-30 06:51 | -34.96183 | 143.76206 | 37256 ft | 494 kts | 86° |
| 2026-04-30 06:51 | -34.96048 | 143.84581 | 37253 ft | 494 kts | 86° |
| 2026-04-30 06:52 | -34.95908 | 143.92959 | 37265 ft | 493 kts | 86° |
| 2026-04-30 06:52 | -34.95762 | 144.01324 | 37260 ft | 493 kts | 86° |
| 2026-04-30 06:53 | -34.95610 | 144.09689 | 37261 ft | 493 kts | 86° |
| 2026-04-30 06:53 | -34.95453 | 144.18058 | 37264 ft | 493 kts | 86° |
| 2026-04-30 06:54 | -34.95291 | 144.26363 | 37261 ft | 494 kts | 86° |
| 2026-04-30 06:54 | -34.95122 | 144.34736 | 37268 ft | 494 kts | 86° |
| 2026-04-30 06:55 | -34.94948 | 144.43093 | 37266 ft | 494 kts | 86° |
| 2026-04-30 06:55 | -34.94768 | 144.51463 | 37265 ft | 494 kts | 85° |
| 2026-04-30 06:56 | -34.94581 | 144.59849 | 37271 ft | 494 kts | 85° |
| 2026-04-30 06:56 | -34.94389 | 144.68227 | 37272 ft | 494 kts | 85° |
| 2026-04-30 06:57 | -34.94191 | 144.76602 | 37266 ft | 494 kts | 85° |
| 2026-04-30 06:57 | -34.93988 | 144.84980 | 37272 ft | 494 kts | 85° |
| 2026-04-30 06:58 | -34.93779 | 144.93348 | 37274 ft | 494 kts | 85° |
| 2026-04-30 06:58 | -34.93565 | 145.01711 | 37272 ft | 494 kts | 85° |
| 2026-04-30 06:59 | -34.93345 | 145.10067 | 37275 ft | 493 kts | 85° |
| 2026-04-30 06:59 | -34.93114 | 145.18372 | 37277 ft | 493 kts | 85° |
| 2026-04-30 07:00 | -34.92874 | 145.26719 | 37270 ft | 492 kts | 85° |
| 2026-04-30 07:00 | -34.92630 | 145.35052 | 37281 ft | 492 kts | 85° |
| 2026-04-30 07:01 | -34.92381 | 145.43392 | 37283 ft | 492 kts | 85° |
| 2026-04-30 07:01 | -34.92127 | 145.51719 | 37279 ft | 492 kts | 85° |
| 2026-04-30 07:02 | -34.91867 | 145.60060 | 37278 ft | 492 kts | 85° |
| 2026-04-30 07:02 | -34.91602 | 145.68349 | 37280 ft | 493 kts | 85° |
| 2026-04-30 07:03 | -34.91329 | 145.76702 | 37282 ft | 493 kts | 85° |
| 2026-04-30 07:03 | -34.91052 | 145.85059 | 37289 ft | 493 kts | 85° |
| 2026-04-30 07:04 | -34.90768 | 145.93428 | 37284 ft | 493 kts | 85° |
| 2026-04-30 07:04 | -34.90479 | 146.01780 | 37290 ft | 493 kts | 85° |
| 2026-04-30 07:05 | -34.90035 | 146.14258 | 37289 ft | 492 kts | 85° |
| 2026-04-30 07:05 | -34.89733 | 146.22592 | 37288 ft | 492 kts | 86° |
| 2026-04-30 07:06 | -34.89424 | 146.30912 | 37291 ft | 491 kts | 85° |
| 2026-04-30 07:06 | -34.89110 | 146.39228 | 37297 ft | 491 kts | 86° |
| 2026-04-30 07:07 | -34.88791 | 146.47539 | 37301 ft | 490 kts | 86° |
| 2026-04-30 07:07 | -34.88467 | 146.55838 | 37300 ft | 490 kts | 86° |
| 2026-04-30 07:08 | -34.88137 | 146.64133 | 37304 ft | 490 kts | 86° |
| 2026-04-30 07:08 | -34.87804 | 146.72377 | 37308 ft | 490 kts | 86° |
| 2026-04-30 07:09 | -34.87461 | 146.80689 | 37306 ft | 490 kts | 86° |
| 2026-04-30 07:09 | -34.87117 | 146.88925 | 37314 ft | 490 kts | 86° |
| 2026-04-30 07:10 | -34.86764 | 146.97223 | 37314 ft | 491 kts | 86° |
| 2026-04-30 07:10 | -34.86405 | 147.05541 | 37317 ft | 491 kts | 86° |
| 2026-04-30 07:11 | -34.86040 | 147.13864 | 37313 ft | 492 kts | 86° |
| 2026-04-30 07:11 | -34.85669 | 147.22194 | 37327 ft | 493 kts | 86° |
| 2026-04-30 07:12 | -34.85292 | 147.30528 | 37327 ft | 493 kts | 86° |
| 2026-04-30 07:12 | -34.84909 | 147.38868 | 37327 ft | 493 kts | 86° |
| 2026-04-30 07:13 | -34.84520 | 147.47223 | 37334 ft | 494 kts | 86° |
| 2026-04-30 07:13 | -34.84127 | 147.55517 | 37336 ft | 494 kts | 86° |
| 2026-04-30 07:14 | -34.83727 | 147.63855 | 37335 ft | 494 kts | 86° |
| 2026-04-30 07:14 | -34.83321 | 147.72210 | 37344 ft | 493 kts | 86° |
| 2026-04-30 07:15 | -34.82909 | 147.80548 | 37342 ft | 493 kts | 86° |
| 2026-04-30 07:15 | -34.82492 | 147.88888 | 37349 ft | 493 kts | 86° |
| 2026-04-30 07:16 | -34.82069 | 147.97219 | 37351 ft | 492 kts | 86° |
| 2026-04-30 07:16 | -34.81642 | 148.05526 | 37348 ft | 492 kts | 86° |
| 2026-04-30 07:17 | -34.81212 | 148.13776 | 37351 ft | 491 kts | 86° |
| 2026-04-30 07:18 | -34.80553 | 148.26217 | 37362 ft | 491 kts | 86° |
| 2026-04-30 07:18 | -34.80108 | 148.34494 | 37360 ft | 490 kts | 86° |
| 2026-04-30 07:19 | -34.79657 | 148.42776 | 37368 ft | 490 kts | 86° |
| 2026-04-30 07:19 | -34.79201 | 148.51037 | 37366 ft | 490 kts | 86° |
| 2026-04-30 07:20 | -34.78742 | 148.59259 | 37372 ft | 490 kts | 86° |
| 2026-04-30 07:20 | -34.78351 | 148.66177 | 37362 ft | 490 kts | 86° |
| 2026-04-30 07:21 | -34.77879 | 148.74443 | 37367 ft | 490 kts | 86° |
| 2026-04-30 07:21 | -34.77402 | 148.82697 | 37367 ft | 486 kts | 86° |
| 2026-04-30 07:21 | -34.77165 | 148.86764 | 37125 ft | 478 kts | 86° |
| 2026-04-30 07:22 | -34.76697 | 148.94725 | 36349 ft | 467 kts | 86° |
| 2026-04-30 07:22 | -34.76464 | 148.98644 | 35942 ft | 462 kts | 86° |
| 2026-04-30 07:22 | -34.76236 | 149.02472 | 35549 ft | 457 kts | 86° |
| 2026-04-30 07:23 | -34.76006 | 149.06315 | 35183 ft | 452 kts | 86° |
| 2026-04-30 07:23 | -34.75778 | 149.10105 | 34823 ft | 446 kts | 86° |
| 2026-04-30 07:23 | -34.75551 | 149.13846 | 34452 ft | 441 kts | 86° |
| 2026-04-30 07:23 | -34.75326 | 149.17547 | 34005 ft | 437 kts | 86° |
| 2026-04-30 07:24 | -34.75101 | 149.21227 | 33494 ft | 434 kts | 86° |
| 2026-04-30 07:24 | -34.74877 | 149.24888 | 32976 ft | 432 kts | 86° |
| 2026-04-30 07:24 | -34.74653 | 149.28529 | 32466 ft | 430 kts | 86° |
| 2026-04-30 07:24 | -34.74428 | 149.32148 | 32011 ft | 428 kts | 86° |
| 2026-04-30 07:25 | -34.74139 | 149.35736 | 31582 ft | 425 kts | 81° |
| 2026-04-30 07:25 | -34.73473 | 149.39211 | 31127 ft | 420 kts | 73° |
| 2026-04-30 07:25 | -34.72506 | 149.42473 | 30506 ft | 415 kts | 66° |
| 2026-04-30 07:25 | -34.71204 | 149.45614 | 29847 ft | 416 kts | 62° |
| 2026-04-30 07:26 | -34.69829 | 149.48715 | 29293 ft | 415 kts | 62° |
| 2026-04-30 07:26 | -34.68465 | 149.51780 | 28924 ft | 410 kts | 62° |
| 2026-04-30 07:26 | -34.67117 | 149.54819 | 28503 ft | 406 kts | 62° |
| 2026-04-30 07:26 | -34.65784 | 149.57841 | 28035 ft | 404 kts | 62° |
| 2026-04-30 07:27 | -34.64468 | 149.60835 | 27588 ft | 401 kts | 62° |
| 2026-04-30 07:27 | -34.63159 | 149.63819 | 27181 ft | 398 kts | 62° |
| 2026-04-30 07:27 | -34.61866 | 149.66770 | 26772 ft | 395 kts | 62° |
| 2026-04-30 07:27 | -34.60583 | 149.69697 | 26365 ft | 392 kts | 62° |
| 2026-04-30 07:28 | -34.59306 | 149.72608 | 25955 ft | 389 kts | 62° |
| 2026-04-30 07:28 | -34.58037 | 149.75500 | 25546 ft | 387 kts | 62° |
| 2026-04-30 07:28 | -34.56785 | 149.78350 | 25055 ft | 378 kts | 62° |
| 2026-04-30 07:28 | -34.55552 | 149.81154 | 24316 ft | 375 kts | 62° |
| 2026-04-30 07:29 | -34.54327 | 149.83936 | 23454 ft | 374 kts | 62° |
| 2026-04-30 07:29 | -34.53108 | 149.86705 | 22636 ft | 370 kts | 62° |
| 2026-04-30 07:29 | -34.51907 | 149.89429 | 21922 ft | 363 kts | 62° |
| 2026-04-30 07:29 | -34.50721 | 149.92114 | 21170 ft | 359 kts | 62° |
| 2026-04-30 07:30 | -34.48381 | 149.97410 | 19815 ft | 357 kts | 62° |
| 2026-04-30 07:30 | -34.47208 | 150.00061 | 19467 ft | 354 kts | 62° |
| 2026-04-30 07:30 | -34.46053 | 150.02669 | 19159 ft | 350 kts | 62° |
| 2026-04-30 07:31 | -34.44907 | 150.05256 | 18844 ft | 346 kts | 62° |
| 2026-04-30 07:31 | -34.43774 | 150.07813 | 18463 ft | 344 kts | 62° |
| 2026-04-30 07:31 | -34.42647 | 150.10355 | 18082 ft | 341 kts | 62° |
| 2026-04-30 07:31 | -34.41527 | 150.12879 | 17693 ft | 339 kts | 62° |
| 2026-04-30 07:32 | -34.40419 | 150.15374 | 17315 ft | 336 kts | 61° |
| 2026-04-30 07:32 | -34.39310 | 150.17870 | 16903 ft | 335 kts | 61° |
| 2026-04-30 07:32 | -34.38210 | 150.20343 | 16542 ft | 332 kts | 61° |
| 2026-04-30 07:32 | -34.37117 | 150.22799 | 16173 ft | 330 kts | 61° |
| 2026-04-30 07:33 | -34.36042 | 150.25212 | 15810 ft | 328 kts | 61° |
| 2026-04-30 07:33 | -34.34966 | 150.27627 | 15495 ft | 325 kts | 61° |
| 2026-04-30 07:33 | -34.33893 | 150.30034 | 15091 ft | 325 kts | 60° |
| 2026-04-30 07:33 | -34.32819 | 150.32440 | 14720 ft | 324 kts | 60° |
| 2026-04-30 07:34 | -34.31751 | 150.34833 | 14374 ft | 322 kts | 60° |
| 2026-04-30 07:34 | -34.30688 | 150.37212 | 14008 ft | 320 kts | 60° |
| 2026-04-30 07:34 | -34.29630 | 150.39579 | 13645 ft | 318 kts | 60° |
| 2026-04-30 07:34 | -34.28586 | 150.41912 | 13314 ft | 315 kts | 60° |
| 2026-04-30 07:35 | -34.27546 | 150.44234 | 12946 ft | 312 kts | 60° |
| 2026-04-30 07:35 | -34.26513 | 150.46540 | 12562 ft | 311 kts | 61° |
| 2026-04-30 07:35 | -34.25485 | 150.48837 | 12210 ft | 309 kts | 61° |
| 2026-04-30 07:35 | -34.24465 | 150.51115 | 11868 ft | 307 kts | 61° |
| 2026-04-30 07:36 | -34.23453 | 150.53374 | 11588 ft | 304 kts | 61° |
| 2026-04-30 07:36 | -34.22447 | 150.55618 | 11191 ft | 304 kts | 62° |
| 2026-04-30 07:36 | -34.21444 | 150.57855 | 10925 ft | 300 kts | 62° |
| 2026-04-30 07:36 | -34.20448 | 150.60075 | 10501 ft | 301 kts | 62° |
| 2026-04-30 07:37 | -34.19452 | 150.62291 | 10167 ft | 300 kts | 62° |
| 2026-04-30 07:37 | -34.18457 | 150.64505 | 9756 ft | 300 kts | 62° |
| 2026-04-30 07:37 | -34.17468 | 150.66704 | 9425 ft | 297 kts | 62° |
| 2026-04-30 07:37 | -34.16496 | 150.68866 | 9029 ft | 297 kts | 62° |
| 2026-04-30 07:38 | -34.15514 | 150.71047 | 8676 ft | 295 kts | 62° |
| 2026-04-30 07:38 | -34.14533 | 150.73225 | 8360 ft | 292 kts | 62° |
| 2026-04-30 07:38 | -34.13567 | 150.75372 | 8035 ft | 290 kts | 62° |
| 2026-04-30 07:38 | -34.12604 | 150.77509 | 7718 ft | 288 kts | 61° |
| 2026-04-30 07:39 | -34.11651 | 150.79621 | 7389 ft | 286 kts | 61° |
| 2026-04-30 07:39 | -34.10699 | 150.81728 | 7060 ft | 285 kts | 61° |
| 2026-04-30 07:39 | -34.09760 | 150.83810 | 6800 ft | 281 kts | 61° |
| 2026-04-30 07:39 | -34.08828 | 150.85883 | 6454 ft | 280 kts | 61° |
| 2026-04-30 07:40 | -34.07905 | 150.87934 | 6165 ft | 274 kts | 61° |
| 2026-04-30 07:40 | -34.07028 | 150.89884 | 6071 ft | 255 kts | 61° |
| 2026-04-30 07:40 | -34.06195 | 150.91733 | 6047 ft | 247 kts | 61° |
| 2026-04-30 07:40 | -34.05368 | 150.93566 | 6035 ft | 250 kts | 61° |
| 2026-04-30 07:41 | -34.04542 | 150.95396 | 6011 ft | 246 kts | 61° |
| 2026-04-30 07:41 | -34.03716 | 150.97226 | 6011 ft | 250 kts | 61° |
| 2026-04-30 07:41 | -34.03049 | 150.99124 | 5892 ft | 246 kts | 79° |
| 2026-04-30 07:41 | -34.03210 | 151.01133 | 5513 ft | 242 kts | 109° |
| 2026-04-30 07:42 | -34.04090 | 151.02846 | 5004 ft | 242 kts | 128° |
| 2026-04-30 07:42 | -34.05247 | 151.04349 | 4489 ft | 247 kts | 131° |
| 2026-04-30 07:42 | -34.06436 | 151.05821 | 4229 ft | 242 kts | 131° |
| 2026-04-30 07:42 | -34.07618 | 151.07238 | 3952 ft | 237 kts | 138° |
| 2026-04-30 07:43 | -34.09135 | 151.08069 | 3419 ft | 246 kts | 166° |
| 2026-04-30 07:43 | -34.10798 | 151.08458 | 3074 ft | 246 kts | 166° |
| 2026-04-30 07:43 | -34.12505 | 151.08896 | 3025 ft | 254 kts | 165° |
| 2026-04-30 07:43 | -34.14223 | 151.09351 | 2999 ft | 249 kts | 162° |
| 2026-04-30 07:44 | -34.15600 | 151.10347 | 2978 ft | 216 kts | 123° |
| 2026-04-30 07:44 | -34.16115 | 151.11901 | 3019 ft | 196 kts | 100° |
| 2026-04-30 07:44 | -34.16353 | 151.13513 | 3010 ft | 193 kts | 94° |
| 2026-04-30 07:44 | -34.16504 | 151.15113 | 3011 ft | 190 kts | 92° |
| 2026-04-30 07:45 | -34.16643 | 151.16699 | 2994 ft | 188 kts | 93° |
| 2026-04-30 07:45 | -34.16775 | 151.18213 | 2974 ft | 175 kts | 90° |
| 2026-04-30 07:45 | -34.16594 | 151.19579 | 2997 ft | 161 kts | 63° |
| 2026-04-30 07:45 | -34.16033 | 151.20767 | 3023 ft | 163 kts | 52° |
| 2026-04-30 07:46 | -34.15262 | 151.21757 | 3006 ft | 160 kts | 44° |
| 2026-04-30 07:46 | -34.14315 | 151.22397 | 2980 ft | 159 kts | 7° |
| 2026-04-30 07:46 | -34.13210 | 151.22268 | 3023 ft | 165 kts | 356° |
| 2026-04-30 07:46 | -34.12102 | 151.22086 | 2992 ft | 155 kts | 355° |
| 2026-04-30 07:47 | -34.11066 | 151.21860 | 2937 ft | 148 kts | 353° |
| 2026-04-30 07:47 | -34.10065 | 151.21615 | 2745 ft | 146 kts | 353° |
| 2026-04-30 07:47 | -34.09082 | 151.21364 | 2553 ft | 143 kts | 352° |
| 2026-04-30 07:47 | -34.08104 | 151.21111 | 2363 ft | 144 kts | 353° |
| 2026-04-30 07:48 | -34.07121 | 151.20855 | 2172 ft | 144 kts | 353° |
| 2026-04-30 07:48 | -34.06143 | 151.20599 | 1976 ft | 144 kts | 352° |
| 2026-04-30 07:48 | -34.05163 | 151.20344 | 1777 ft | 144 kts | 352° |
| 2026-04-30 07:48 | -34.04205 | 151.20093 | 1596 ft | 142 kts | 352° |
| 2026-04-30 07:49 | -34.03237 | 151.19841 | 1403 ft | 141 kts | 352° |
| 2026-04-30 07:49 | -34.02278 | 151.19580 | 1169 ft | 144 kts | 351° |
| 2026-04-30 07:49 | -34.01304 | 151.19296 | 979 ft | 142 kts | 352° |
| 2026-04-30 07:49 | -34.00338 | 151.19050 | 858 ft | 140 kts | 352° |
| 2026-04-30 07:50 | -33.99366 | 151.18804 | 708 ft | 145 kts | 351° |
| 2026-04-30 07:50 | -33.98379 | 151.18565 | 472 ft | 143 kts | 352° |
| 2026-04-30 07:50 | -33.97420 | 151.18309 | 264 ft | 136 kts | 352° |
| 2026-04-30 07:50 | -33.96479 | 151.18076 | 95 ft | 140 kts | 351° |
| 2026-04-30 07:51 | -33.95569 | 151.17842 | 34 ft | 119 kts | 347° |
| 2026-04-30 07:51 | -33.94939 | 151.17680 | 33 ft | 66 kts | 347° |
| 2026-04-30 07:51 | -33.94653 | 151.17598 | 35 ft | 27 kts | 341° |
| 2026-04-30 07:51 | -33.94517 | 151.17531 | 35 ft | 20 kts | 332° |
| 2026-04-30 07:52 | -33.94409 | 151.17444 | 35 ft | 11 kts | 320° |
| 2026-04-30 07:52 | -33.94393 | 151.17427 | 35 ft | 0 kts | 320° |
| 2026-04-30 07:52 | -33.94389 | 151.17423 | 34 ft | 3 kts | 319° |
| 2026-04-30 07:52 | -33.94355 | 151.17385 | 34 ft | 11 kts | 317° |
| 2026-04-30 07:53 | -33.94323 | 151.17350 | 35 ft | 4 kts | 317° |
| 2026-04-30 07:53 | -33.94281 | 151.17311 | 35 ft | 6 kts | 333° |
| 2026-04-30 07:53 | -33.94274 | 151.17308 | 34 ft | 0 kts | 339° |
| 2026-04-30 07:53 | -33.94267 | 151.17305 | 34 ft | 2 kts | 341° |
| 2026-04-30 07:54 | -33.94237 | 151.17294 | 34 ft | 12 kts | 346° |
| 2026-04-30 07:54 | -33.94137 | 151.17267 | 33 ft | 15 kts | 348° |
| 2026-04-30 07:54 | -33.94048 | 151.17244 | 34 ft | 10 kts | 347° |
| 2026-04-30 07:54 | -33.93991 | 151.17205 | 33 ft | 10 kts | 297° |
| 2026-04-30 07:55 | -33.93993 | 151.17119 | 34 ft | 10 kts | 252° |
| 2026-04-30 07:55 | -33.94016 | 151.17033 | 34 ft | 11 kts | 253° |
| 2026-04-30 07:55 | -33.94038 | 151.16943 | 35 ft | 11 kts | 254° |
| 2026-04-30 07:55 | -33.94054 | 151.16850 | 35 ft | 11 kts | 276° |
| 2026-04-30 07:56 | -33.93993 | 151.16796 | 35 ft | 12 kts | 345° |
| 2026-04-30 07:56 | -33.93916 | 151.16770 | 35 ft | 11 kts | 344° |
| 2026-04-30 07:56 | -33.93876 | 151.16749 | 35 ft | 5 kts | 310° |
| 2026-04-30 07:56 | -33.93874 | 151.16707 | 35 ft | 5 kts | 256° |
| 2026-04-30 07:57 | -33.93882 | 151.16677 | 35 ft | 3 kts | 253° |
| 2026-04-30 07:57 | -33.93885 | 151.16664 | 35 ft | 1 kts | 253° |
| 2026-04-30 07:57 | -33.93886 | 151.16660 | 35 ft | 1 kts | 253° |
| 2026-04-30 07:57 | -33.93887 | 151.16655 | 35 ft | 0 kts | 253° |
| 2026-04-30 07:58 | -33.93887 | 151.16654 | 35 ft | 0 kts | 253° |